createdAt,value
2018-01-28T00:02:10.905Z,96116.94
2018-01-28T00:04:50.007Z,96102.89
2018-01-28T00:07:19.060Z,96096.58
2018-01-28T00:09:47.347Z,96103.64
2018-01-28T00:12:15.780Z,96093.15
2018-01-28T00:14:44.054Z,96091.75
2018-01-28T00:17:12.341Z,96085.14
2018-01-28T00:19:47.627Z,96079.35
2018-01-28T00:22:16.666Z,96072.84
2018-01-28T00:24:44.931Z,96075.10
2018-01-28T00:27:13.975Z,96089.38
2018-01-28T00:29:42.284Z,96055.39
2018-01-28T00:32:10.571Z,96065.30
2018-01-28T00:34:38.847Z,96065.17
2018-01-28T00:37:07.128Z,96073.00
2018-01-28T00:39:35.409Z,96065.38
2018-01-28T00:42:05.651Z,96053.46
2018-01-28T00:44:50.457Z,96027.20
2018-01-28T00:47:25.519Z,96030.08
2018-01-28T00:49:56.927Z,96008.48
2018-01-28T00:52:25.219Z,96014.31
2018-01-28T00:54:53.500Z,96010.62
2018-01-28T00:57:21.823Z,96013.72
2018-01-28T00:59:50.092Z,96018.00
2018-01-28T01:02:18.969Z,95996.91
2018-01-28T01:04:47.232Z,96006.27
2018-01-28T01:07:17.519Z,95991.32
2018-01-28T01:09:45.805Z,96011.50
2018-01-28T01:12:14.093Z,96012.77
2018-01-28T01:14:42.360Z,96003.07
2018-01-28T01:17:10.644Z,95995.73
2018-01-28T01:19:38.927Z,95991.35
2018-01-28T01:22:28.179Z,95995.67
2018-01-28T01:24:56.447Z,95992.09
2018-01-28T01:27:24.738Z,95987.89
2018-01-28T01:29:57.799Z,95990.17
2018-01-28T01:32:31.127Z,95985.48
2018-01-28T01:34:59.392Z,95968.39
2018-01-28T01:37:32.010Z,95969.48
2018-01-28T01:40:00.286Z,95979.88
2018-01-28T01:42:36.639Z,95996.00
2018-01-28T01:45:22.172Z,95969.53
2018-01-28T01:47:50.460Z,95964.30
2018-01-28T01:50:29.548Z,95986.20
2018-01-28T01:53:08.700Z,95983.59
2018-01-28T01:55:37.750Z,95999.30
2018-01-28T01:58:06.040Z,95995.80
2018-01-28T02:00:34.314Z,95990.73
2018-01-28T02:06:02.864Z,95963.61
2018-01-28T02:08:53.206Z,95988.48
2018-01-28T02:11:21.490Z,95973.44
2018-01-28T02:13:49.768Z,95980.20
2018-01-28T02:16:18.061Z,95982.85
2018-01-28T02:18:50.089Z,95978.94
2018-01-28T02:21:18.388Z,95981.33
2018-01-28T02:30:00.680Z,95984.92
2018-01-28T02:32:28.957Z,96004.63
2018-01-28T02:34:57.238Z,95979.35
2018-01-28T02:37:25.525Z,95984.59
2018-01-28T02:39:53.804Z,95999.97
2018-01-28T02:42:22.864Z,95991.33
2018-01-28T02:45:08.136Z,96000.52
2018-01-28T02:47:36.420Z,96000.50
2018-01-28T02:50:04.690Z,95984.74
2018-01-28T02:52:44.115Z,95986.84
2018-01-28T02:55:13.171Z,95964.94
2018-01-28T02:57:58.371Z,95966.63
2018-01-28T03:00:26.644Z,95967.03
2018-01-28T03:03:27.484Z,95956.75
2018-01-28T03:06:05.886Z,95953.63
2018-01-28T03:08:41.940Z,95951.20
2018-01-28T03:11:10.220Z,95943.95
2018-01-28T03:13:38.498Z,95954.97
2018-01-28T03:16:10.195Z,95954.91
2018-01-28T03:18:49.132Z,95956.61
2018-01-28T03:21:18.182Z,95970.26
2018-01-28T03:23:47.380Z,95970.01
2018-01-28T03:26:15.655Z,95996.72
2018-01-28T03:29:03.164Z,95994.48
2018-01-28T03:31:31.451Z,96002.73
2018-01-28T03:33:59.725Z,96000.21
2018-01-28T03:36:34.811Z,96015.77
2018-01-28T03:39:03.852Z,96018.09
2018-01-28T03:41:32.132Z,96014.69
2018-01-28T03:44:00.395Z,96013.27
2018-01-28T03:46:30.352Z,96011.91
2018-01-28T03:49:01.189Z,96006.45
2018-01-28T03:51:29.473Z,96007.81
2018-01-28T03:53:58.696Z,96006.38
2018-01-28T03:56:26.988Z,96006.53
2018-01-28T03:58:55.260Z,96002.98
2018-01-28T04:01:23.547Z,96005.90
2018-01-28T04:03:51.824Z,96017.03
2018-01-28T04:06:20.878Z,95999.77
2018-01-28T04:08:49.144Z,95991.20
2018-01-28T04:11:18.183Z,95987.55
2018-01-28T04:13:46.463Z,95985.80
2018-01-28T04:16:22.900Z,95980.63
2018-01-28T04:18:51.939Z,95989.55
2018-01-28T04:21:20.224Z,95989.84
2018-01-28T04:23:54.938Z,95980.20
2018-01-28T04:26:23.251Z,95961.44
2018-01-28T04:28:51.549Z,95962.88
2018-01-28T04:31:19.837Z,95961.80
2018-01-28T04:33:48.124Z,95974.54
2018-01-28T04:36:28.065Z,95970.20
2018-01-28T04:39:06.364Z,95979.23
2018-01-28T04:41:42.340Z,95990.24
2018-01-28T04:44:11.379Z,95980.46
2018-01-28T04:46:39.676Z,95983.07
2018-01-28T04:49:07.953Z,95976.84
2018-01-28T04:51:37.022Z,95975.17
2018-01-28T04:54:06.052Z,95979.16
2018-01-28T04:56:40.059Z,95986.42
2018-01-28T04:59:09.895Z,95990.05
2018-01-28T05:01:45.853Z,95986.80
2018-01-28T05:04:16.905Z,95994.94
2018-01-28T05:06:46.867Z,95999.53
2018-01-28T05:09:15.148Z,95988.64
2018-01-28T05:11:43.454Z,95998.63
2018-01-28T05:14:11.747Z,95988.80
2018-01-28T05:16:40.063Z,95997.30
2018-01-28T05:19:08.356Z,96002.48
2018-01-28T05:21:40.891Z,96007.39
2018-01-28T05:24:24.375Z,96009.64
2018-01-28T05:26:52.674Z,96012.14
2018-01-28T05:29:20.951Z,96014.71
2018-01-28T05:31:49.234Z,96010.80
2018-01-28T05:34:17.512Z,96022.73
2018-01-28T05:36:45.784Z,96022.06
2018-01-28T05:39:14.081Z,96020.15
2018-01-28T05:41:42.356Z,96016.73
2018-01-28T05:44:10.649Z,96025.92
2018-01-28T05:46:44.467Z,96033.84
2018-01-28T05:49:16.846Z,96030.52
2018-01-28T05:51:45.119Z,96023.20
2018-01-28T05:54:14.177Z,96029.23
2018-01-28T05:56:42.448Z,96041.59
2018-01-28T05:59:10.724Z,96029.61
2018-01-28T06:01:38.999Z,96029.77
2018-01-28T06:04:07.295Z,96033.02
2018-01-28T06:06:39.586Z,96037.19
2018-01-28T06:09:07.876Z,96036.19
2018-01-28T06:11:36.166Z,96047.30
2018-01-28T06:14:04.460Z,96046.17
2018-01-28T06:16:32.740Z,96052.97
2018-01-28T06:19:04.409Z,96065.14
2018-01-28T06:21:32.702Z,96067.04
2018-01-28T06:24:01.006Z,96065.62
2018-01-28T06:26:29.275Z,96071.59
2018-01-28T06:29:02.077Z,96086.22
2018-01-28T06:31:30.363Z,96086.18
2018-01-28T06:33:58.649Z,96085.39
2018-01-28T06:36:27.752Z,96080.56
2018-01-28T06:38:56.980Z,96072.48
2018-01-28T06:41:25.252Z,96066.25
2018-01-28T06:43:55.491Z,96052.48
2018-01-28T06:46:23.765Z,96058.65
2018-01-28T06:48:53.000Z,96076.78
2018-01-28T06:51:35.424Z,96080.14
2018-01-28T06:54:03.699Z,96077.97
2018-01-28T06:56:32.906Z,96077.75
2018-01-28T06:59:07.647Z,96071.91
2018-01-28T07:01:35.952Z,96094.50
2018-01-28T07:04:04.231Z,96089.80
2018-01-28T07:06:35.993Z,96087.58
2018-01-28T07:09:04.272Z,96097.59
2018-01-28T07:11:32.553Z,96108.72
2018-01-28T07:14:01.589Z,96113.45
2018-01-28T07:16:29.872Z,96113.80
2018-01-28T07:18:59.319Z,96097.59
2018-01-28T07:21:37.589Z,96116.00
2018-01-28T07:24:06.636Z,96109.59
2018-01-28T07:26:38.899Z,96126.27
2018-01-28T07:29:07.171Z,96128.17
2018-01-28T07:31:35.446Z,96125.66
2018-01-28T07:34:04.489Z,96133.92
2018-01-28T07:36:38.863Z,96135.23
2018-01-28T07:39:07.139Z,96139.79
2018-01-28T07:41:35.417Z,96137.28
2018-01-28T07:44:03.721Z,96140.04
2018-01-28T07:46:36.670Z,96135.49
2018-01-28T07:49:05.212Z,96131.77
2018-01-28T07:51:33.479Z,96140.45
2018-01-28T07:54:01.770Z,96152.06
2018-01-28T07:56:30.048Z,96147.22
2018-01-28T07:58:58.329Z,96153.45
2018-01-28T08:01:26.591Z,96152.07
2018-01-28T08:03:55.640Z,96161.73
2018-01-28T08:06:23.904Z,96160.43
2018-01-28T08:08:53.088Z,96166.41
2018-01-28T08:11:23.265Z,96169.92
2018-01-28T08:14:01.974Z,96164.09
2018-01-28T08:16:38.722Z,96164.12
2018-01-28T08:19:07.011Z,96180.81
2018-01-28T08:21:50.426Z,96185.23
2018-01-28T08:24:18.975Z,96173.46
2018-01-28T08:27:00.965Z,96175.25
2018-01-28T08:29:29.240Z,96171.62
2018-01-28T08:32:08.920Z,96182.43
2018-01-28T08:34:38.004Z,96192.81
2018-01-28T08:37:06.268Z,96189.30
2018-01-28T08:39:51.160Z,96180.27
2018-01-28T08:42:20.435Z,96185.79
2018-01-28T08:45:00.887Z,96196.40
2018-01-28T08:47:35.821Z,96187.80
2018-01-28T08:50:04.104Z,96184.64
2018-01-28T08:52:57.973Z,96188.25
2018-01-28T08:55:26.259Z,96188.55
2018-01-28T08:57:54.759Z,96187.77
2018-01-28T09:03:24.175Z,96191.84
2018-01-28T09:06:11.647Z,96188.48
2018-01-28T09:08:40.312Z,96161.92
2018-01-28T09:14:12.119Z,96181.02
2018-01-28T09:16:40.387Z,96187.98
2018-01-28T09:19:29.751Z,96197.91
2018-01-28T09:24:58.977Z,96203.03
2018-01-28T09:27:27.243Z,96208.91
2018-01-28T09:29:55.527Z,96218.39
2018-01-28T09:32:29.220Z,96218.92
2018-01-28T09:35:14.953Z,96230.45
2018-01-28T09:37:53.132Z,96237.94
2018-01-28T09:40:22.179Z,96236.81
2018-01-28T09:43:17.744Z,96230.84
2018-01-28T09:46:15.772Z,96216.20
2018-01-28T09:48:44.241Z,96220.91
2018-01-28T09:51:24.812Z,96210.70
2018-01-28T09:53:57.950Z,96224.23
2018-01-28T09:56:40.388Z,96213.00
2018-01-28T09:59:15.384Z,96213.84
2018-01-28T10:01:44.419Z,96219.13
2018-01-28T10:04:12.703Z,96218.68
2018-01-28T10:06:41.308Z,96224.30
2018-01-28T10:09:09.596Z,96229.94
2018-01-28T10:11:48.909Z,96239.14
2018-01-28T10:14:21.252Z,96243.31
2018-01-28T10:16:49.536Z,96240.75
2018-01-28T10:19:17.832Z,96251.47
2018-01-28T10:21:46.121Z,96241.38
2018-01-28T10:24:26.027Z,96246.85
2018-01-28T10:26:58.738Z,96250.64
2018-01-28T10:29:27.020Z,96251.64
2018-01-28T10:31:55.300Z,96261.33
2018-01-28T10:34:38.313Z,96253.55
2018-01-28T10:37:06.585Z,96261.41
2018-01-28T10:39:34.870Z,96254.69
2018-01-28T10:42:03.161Z,96251.45
2018-01-28T10:44:32.451Z,96243.47
2018-01-28T10:47:00.719Z,96249.34
2018-01-28T10:49:41.538Z,96263.59
2018-01-28T10:52:27.833Z,96260.25
2018-01-28T10:57:57.887Z,96271.44
2018-01-28T11:03:26.452Z,96272.61
2018-01-28T11:05:54.727Z,96261.09
2018-01-28T11:08:29.987Z,96272.47
2018-01-28T11:10:58.268Z,96270.73
2018-01-28T11:13:26.545Z,96247.19
2018-01-28T11:15:54.831Z,96249.27
2018-01-28T11:18:33.332Z,96255.55
2018-01-28T11:21:02.378Z,96255.64
2018-01-28T11:23:43.236Z,96245.00
2018-01-28T11:26:11.512Z,96245.01
2018-01-28T11:32:00.488Z,96251.73
2018-01-28T11:34:41.189Z,96242.59
2018-01-28T11:37:10.222Z,96249.60
2018-01-28T11:39:42.104Z,96250.63
2018-01-28T11:42:31.034Z,96258.63
2018-01-28T11:45:07.936Z,96235.48
2018-01-28T11:47:38.924Z,96235.33
2018-01-28T11:50:07.212Z,96227.17
2018-01-28T11:52:35.488Z,96223.88
2018-01-28T11:55:03.774Z,96217.91
2018-01-28T11:57:57.780Z,96214.19
2018-01-28T12:00:26.064Z,96221.27
2018-01-28T12:02:54.340Z,96218.79
2018-01-28T12:05:26.237Z,96210.00
2018-01-28T12:07:54.529Z,96208.52
2018-01-28T12:10:31.863Z,96209.08
2018-01-28T12:13:07.849Z,96209.79
2018-01-28T12:15:39.976Z,96203.48
2018-01-28T12:18:11.780Z,96218.52
2018-01-28T12:20:40.066Z,96218.39
2018-01-28T12:23:08.347Z,96237.38
2018-01-28T12:25:36.620Z,96228.24
2018-01-28T12:28:17.697Z,96231.11
2018-01-28T12:30:58.445Z,96242.45
2018-01-28T12:33:31.375Z,96240.28
2018-01-28T12:35:59.649Z,96237.09
2018-01-28T12:38:28.886Z,96217.75
2018-01-28T12:40:57.205Z,96203.69
2018-01-28T12:43:25.480Z,96211.88
2018-01-28T12:45:53.760Z,96224.20
2018-01-28T12:48:48.972Z,96224.15
2018-01-28T12:51:17.253Z,96234.63
2018-01-28T12:54:03.897Z,96230.78
2018-01-28T12:56:36.574Z,96222.66
2018-01-28T12:59:04.857Z,96230.43
2018-01-28T13:01:33.155Z,96233.64
2018-01-28T13:04:03.369Z,96228.86
2018-01-28T13:06:32.688Z,96226.48
2018-01-28T13:09:00.984Z,96218.20
2018-01-28T13:11:39.901Z,96211.72
2018-01-28T13:14:08.179Z,96209.09
2018-01-28T13:16:37.240Z,96219.33
2018-01-28T13:19:05.514Z,96217.30
2018-01-28T13:21:34.439Z,96209.67
2018-01-28T13:24:02.696Z,96214.43
2018-01-28T13:26:38.111Z,96203.77
2018-01-28T13:29:07.148Z,96208.57
2018-01-28T13:31:35.427Z,96218.52
2018-01-28T13:34:08.222Z,96207.89
2018-01-28T13:36:40.549Z,96215.59
2018-01-28T13:39:10.749Z,96217.31
2018-01-28T13:41:39.033Z,96228.27
2018-01-28T13:44:07.301Z,96225.48
2018-01-28T13:46:46.544Z,96228.13
2018-01-28T13:49:18.646Z,96235.28
2018-01-28T13:51:46.925Z,96239.90
2018-01-28T13:54:21.365Z,96228.72
2018-01-28T13:57:10.279Z,96235.06
2018-01-28T13:59:39.557Z,96240.94
2018-01-28T14:02:07.829Z,96236.17
2018-01-28T14:04:36.843Z,96247.78
2018-01-28T14:07:05.117Z,96229.31
2018-01-28T14:09:34.143Z,96235.00
2018-01-28T14:12:02.428Z,96234.77
2018-01-28T14:14:30.692Z,96225.27
2018-01-28T14:16:58.960Z,96233.54
2018-01-28T14:19:27.253Z,96229.27
2018-01-28T14:21:56.545Z,96234.35
2018-01-28T14:24:24.821Z,96236.29
2018-01-28T14:26:53.092Z,96233.00
2018-01-28T14:29:24.369Z,96230.22
2018-01-28T14:31:52.644Z,96220.63
2018-01-28T14:34:22.869Z,96220.07
2018-01-28T14:36:51.144Z,96230.48
2018-01-28T14:39:19.412Z,96235.49
2018-01-28T14:41:54.046Z,96237.06
2018-01-28T14:44:24.315Z,96235.09
2018-01-28T14:46:52.587Z,96243.76
2018-01-28T14:49:21.641Z,96248.44
2018-01-28T14:51:49.948Z,96254.05
2018-01-28T14:54:18.201Z,96255.70
2018-01-28T14:56:46.488Z,96262.43
2018-01-28T14:59:14.771Z,96259.73
2018-01-28T15:01:43.036Z,96265.58
2018-01-28T15:04:12.072Z,96271.20
2018-01-28T15:06:40.345Z,96269.55
2018-01-28T15:09:08.604Z,96265.53
2018-01-28T15:11:36.882Z,96266.44
2018-01-28T15:14:05.143Z,96263.61
2018-01-28T15:16:33.414Z,96253.47
2018-01-28T15:19:02.642Z,96249.53
2018-01-28T15:21:31.832Z,96251.80
2018-01-28T15:24:00.102Z,96250.44
2018-01-28T15:26:29.136Z,96251.66
2018-01-28T15:28:57.396Z,96251.83
2018-01-28T15:31:26.444Z,96255.42
2018-01-28T15:33:54.708Z,96257.48
2018-01-28T15:36:24.933Z,96243.63
2018-01-28T15:38:53.192Z,96240.94
2018-01-28T15:41:24.479Z,96234.84
2018-01-28T15:43:53.681Z,96242.55
2018-01-28T15:46:22.729Z,96246.64
2018-01-28T15:48:50.982Z,96250.98
2018-01-28T15:51:19.272Z,96245.56
2018-01-28T15:53:48.481Z,96240.42
2018-01-28T15:56:16.758Z,96238.63
2018-01-28T15:58:46.948Z,96230.38
2018-01-28T16:01:15.212Z,96231.20
2018-01-28T16:03:43.486Z,96237.55
2018-01-28T16:06:11.771Z,96248.52
2018-01-28T16:08:40.065Z,96239.57
2018-01-28T16:11:08.361Z,96237.12
2018-01-28T16:13:36.629Z,96236.17
2018-01-28T16:16:05.779Z,96222.16
2018-01-28T16:18:34.041Z,96226.32
2018-01-28T16:21:02.325Z,96234.95
2018-01-28T16:23:30.584Z,96232.42
2018-01-28T16:25:58.861Z,96241.05
2018-01-28T16:28:27.116Z,96229.97
2018-01-28T16:30:55.402Z,96230.92
2018-01-28T16:33:23.727Z,96241.80
2018-01-28T16:35:53.401Z,96244.19
2018-01-28T16:38:21.664Z,96244.83
2018-01-28T16:40:50.767Z,96243.03
2018-01-28T16:43:19.797Z,96254.08
2018-01-28T16:45:48.080Z,96245.53
2018-01-28T16:48:16.341Z,96242.90
2018-01-28T16:50:46.084Z,96253.72
2018-01-28T16:53:14.494Z,96263.34
2018-01-28T16:55:42.761Z,96263.78
2018-01-28T16:58:11.805Z,96264.38
2018-01-28T17:00:40.071Z,96258.81
2018-01-28T17:03:08.356Z,96266.37
2018-01-28T17:05:36.620Z,96258.80
2018-01-28T17:08:05.675Z,96247.68
2018-01-28T17:10:33.957Z,96243.67
2018-01-28T17:13:03.005Z,96242.59
2018-01-28T17:15:31.266Z,96241.43
2018-01-28T17:17:59.550Z,96240.23
2018-01-28T17:20:27.807Z,96242.60
2018-01-28T17:22:56.086Z,96248.60
2018-01-28T17:25:25.129Z,96261.88
2018-01-28T17:27:53.406Z,96255.53
2018-01-28T17:30:21.675Z,96259.86
2018-01-28T17:32:49.951Z,96260.94
2018-01-28T17:35:24.480Z,96255.88
2018-01-28T17:37:53.528Z,96254.13
2018-01-28T17:40:21.820Z,96247.83
2018-01-28T17:42:50.092Z,96256.73
2018-01-28T17:45:18.370Z,96255.56
2018-01-28T17:47:46.988Z,96243.06
2018-01-28T17:50:15.257Z,96250.81
2018-01-28T17:52:43.532Z,96250.06
2018-01-28T17:55:12.581Z,96255.08
2018-01-28T17:57:40.870Z,96249.70
2018-01-28T18:00:09.144Z,96261.43
2018-01-28T18:02:37.425Z,96247.72
2018-01-28T18:05:05.693Z,96256.16
2018-01-28T18:07:34.741Z,96251.89
2018-01-28T18:10:03.000Z,96252.77
2018-01-28T18:12:31.280Z,96256.33
2018-01-28T18:15:00.304Z,96254.20
2018-01-28T18:17:28.585Z,96263.32
2018-01-28T18:19:56.859Z,96258.87
2018-01-28T18:22:26.625Z,96262.66
2018-01-28T18:24:54.910Z,96266.41
2018-01-28T18:27:23.181Z,96248.52
2018-01-28T18:29:51.461Z,96250.27
2018-01-28T18:32:19.736Z,96245.25
2018-01-28T18:34:48.768Z,96241.64
2018-01-28T18:37:17.044Z,96236.91
2018-01-28T18:39:45.317Z,96241.73
2018-01-28T18:42:14.360Z,96240.86
2018-01-28T18:44:42.630Z,96250.94
2018-01-28T18:47:10.909Z,96246.74
2018-01-28T18:49:39.181Z,96244.19
2018-01-28T18:52:08.234Z,96244.94
2018-01-28T18:54:39.640Z,96251.14
2018-01-28T18:57:07.911Z,96256.71
2018-01-28T18:59:36.180Z,96258.44
2018-01-28T19:02:04.461Z,96264.10
2018-01-28T19:04:32.732Z,96264.38
2018-01-28T19:07:01.025Z,96264.05
2018-01-28T19:09:29.289Z,96251.74
2018-01-28T19:11:58.329Z,96258.36
2018-01-28T19:14:26.605Z,96253.55
2018-01-28T19:16:54.893Z,96243.63
2018-01-28T19:19:23.184Z,96239.36
2018-01-28T19:21:51.455Z,96240.66
2018-01-28T19:24:20.490Z,96235.96
2018-01-28T19:26:48.771Z,96246.33
2018-01-28T19:29:17.045Z,96250.31
2018-01-28T19:31:45.339Z,96250.08
2018-01-28T19:34:13.596Z,96252.38
2018-01-28T19:36:41.874Z,96252.45
2018-01-28T19:39:10.153Z,96256.70
2018-01-28T19:41:38.440Z,96255.48
2018-01-28T19:44:06.717Z,96252.61
2018-01-28T19:46:34.986Z,96248.63
2018-01-28T19:49:03.261Z,96247.40
2018-01-28T19:51:31.519Z,96242.64
2018-01-28T19:53:59.796Z,96239.08
2018-01-28T19:56:28.064Z,96234.31
2018-01-28T19:58:56.345Z,96237.11
2018-01-28T20:01:24.609Z,96226.96
2018-01-28T20:03:52.879Z,96236.95
2018-01-28T20:06:21.147Z,96238.54
2018-01-28T20:08:49.427Z,96231.82
2018-01-28T20:11:17.697Z,96223.60
2018-01-28T20:13:45.970Z,96221.97
2018-01-28T20:16:14.234Z,96217.83
2018-01-28T20:18:42.512Z,96218.39
2018-01-28T20:21:10.771Z,96220.25
2018-01-28T20:23:39.048Z,96221.31
2018-01-28T20:26:07.304Z,96229.75
2018-01-28T20:28:35.589Z,96233.68
2018-01-28T20:31:04.649Z,96225.28
2018-01-28T20:33:32.912Z,96232.55
2018-01-28T20:36:01.207Z,96234.08
2018-01-28T20:38:29.477Z,96232.47
2018-01-28T20:40:57.752Z,96241.22
2018-01-28T20:43:26.044Z,96238.13
2018-01-28T20:45:54.312Z,96239.56
2018-01-28T20:48:22.586Z,96240.42
2018-01-28T20:50:51.642Z,96234.51
2018-01-28T20:53:19.921Z,96245.92
2018-01-28T20:55:48.193Z,96242.20
2018-01-28T20:58:16.472Z,96252.07
2018-01-28T21:00:44.737Z,96241.09
2018-01-28T21:03:13.771Z,96236.64
2018-01-28T21:05:42.844Z,96233.44
2018-01-28T21:08:11.888Z,96235.11
2018-01-28T21:10:40.135Z,96238.22
2018-01-28T21:13:08.408Z,96232.22
2018-01-28T21:15:36.672Z,96242.80
2018-01-28T21:18:04.945Z,96236.25
2018-01-28T21:20:33.204Z,96239.20
2018-01-28T21:23:02.242Z,96240.19
2018-01-28T21:25:30.517Z,96233.22
2018-01-28T21:27:58.796Z,96247.26
2018-01-28T21:30:27.062Z,96238.46
2018-01-28T21:32:55.323Z,96242.47
2018-01-28T21:35:24.527Z,96237.97
2018-01-28T21:37:52.835Z,96239.84
2018-01-28T21:40:21.099Z,96246.16
2018-01-28T21:42:49.376Z,96228.53
2018-01-28T21:45:18.536Z,96241.16
2018-01-28T21:47:46.817Z,96238.47
2018-01-28T21:50:16.068Z,96239.92
2018-01-28T21:52:45.287Z,96236.33
2018-01-28T21:55:13.556Z,96227.38
2018-01-28T21:57:42.770Z,96233.86
2018-01-28T22:00:11.033Z,96235.33
2018-01-28T22:02:39.353Z,96232.62
2018-01-28T22:05:07.616Z,96229.35
2018-01-28T22:07:36.653Z,96232.70
2018-01-28T22:10:21.985Z,96236.37
2018-01-28T22:12:50.290Z,96240.72
2018-01-28T22:15:18.576Z,96237.84
2018-01-28T22:17:53.436Z,96246.58
2018-01-28T22:20:29.704Z,96240.47
2018-01-28T22:22:57.991Z,96242.80
2018-01-28T22:25:26.275Z,96247.48
2018-01-28T22:27:54.572Z,96230.42
2018-01-28T22:30:22.833Z,96248.05
2018-01-28T22:32:51.096Z,96244.38
2018-01-28T22:35:19.367Z,96248.59
2018-01-28T22:37:47.672Z,96235.50
2018-01-28T22:40:15.989Z,96241.00
2018-01-28T22:42:44.284Z,96241.46
2018-01-28T22:45:12.587Z,96243.59
2018-01-28T22:47:40.875Z,96244.50
2018-01-28T22:50:19.008Z,96244.53
2018-01-28T22:52:48.079Z,96245.77
2018-01-28T22:55:16.344Z,96247.81
2018-01-28T22:57:44.620Z,96240.25
2018-01-28T23:00:12.908Z,96240.84
2018-01-28T23:02:43.141Z,96234.84
2018-01-28T23:05:11.433Z,96226.80
2018-01-28T23:07:39.704Z,96219.73
2018-01-28T23:10:08.751Z,96229.16
2018-01-28T23:12:37.025Z,96226.30
2018-01-28T23:15:05.307Z,96230.50
2018-01-28T23:17:51.948Z,96228.27
2018-01-28T23:23:31.489Z,96223.19
2018-01-28T23:26:00.526Z,96223.68
2018-01-28T23:28:50.065Z,96220.08
2018-01-28T23:31:18.358Z,96223.34
2018-01-28T23:33:47.425Z,96223.38
2018-01-28T23:36:34.688Z,96218.87
2018-01-28T23:39:02.976Z,96218.32
2018-01-28T23:41:43.612Z,96224.11
2018-01-28T23:44:17.572Z,96227.20
2018-01-28T23:46:45.892Z,96223.83
2018-01-28T23:49:14.947Z,96207.52
2018-01-28T23:51:43.221Z,96224.08
2018-01-28T23:54:11.523Z,96218.61
2018-01-28T23:56:39.800Z,96217.20
2018-01-28T23:59:09.019Z,96220.23
